createdAt,value
2023-02-07T00:00:45.417Z,-1.52
2023-02-07T00:03:48.075Z,-1.57
2023-02-07T00:06:50.437Z,-1.63
2023-02-07T00:09:52.780Z,-1.48
2023-02-07T00:12:55.358Z,-1.26
2023-02-07T00:15:58.251Z,-1.50
2023-02-07T00:19:00.760Z,-1.76
2023-02-07T00:22:03.838Z,-1.78
2023-02-07T00:25:06.846Z,-1.88
2023-02-07T00:28:09.335Z,-1.68
2023-02-07T00:31:21.733Z,-1.78
2023-02-07T00:34:24.105Z,-1.72
2023-02-07T00:37:26.638Z,-1.90
2023-02-07T00:40:29.959Z,-1.69
2023-02-07T00:43:33.215Z,-1.79
2023-02-07T00:46:36.017Z,-1.82
2023-02-07T00:49:38.273Z,-1.81
2023-02-07T00:52:40.656Z,-1.78
2023-02-07T00:55:43.658Z,-1.75
2023-02-07T00:58:45.991Z,-1.78
2023-02-07T01:01:48.708Z,-1.77
2023-02-07T01:04:51.089Z,-1.79
2023-02-07T01:07:53.550Z,-1.79
2023-02-07T01:10:56.000Z,-2.02
2023-02-07T01:14:01.065Z,-1.83
2023-02-07T01:17:03.458Z,-1.82
2023-02-07T01:20:06.196Z,-1.90
2023-02-07T01:23:08.508Z,-1.92
2023-02-07T01:26:10.855Z,-2.06
2023-02-07T01:29:15.540Z,-1.91
2023-02-07T01:32:17.840Z,-2.07
2023-02-07T01:35:20.563Z,-2.09
2023-02-07T01:38:22.887Z,-2.22
2023-02-07T01:41:26.298Z,-2.24
2023-02-07T01:44:28.575Z,-2.22
2023-02-07T01:47:31.656Z,-2.17
2023-02-07T01:50:34.115Z,-2.34
2023-02-07T01:53:37.948Z,-2.12
2023-02-07T01:56:44.784Z,-2.15
2023-02-07T01:59:47.227Z,-2.29
2023-02-07T02:02:49.628Z,-2.14
2023-02-07T02:05:54.265Z,-2.09
2023-02-07T02:09:02.040Z,-2.17
2023-02-07T02:12:13.486Z,-2.09
2023-02-07T02:15:43.360Z,-2.25
2023-02-07T02:18:45.728Z,-2.34
2023-02-07T02:22:05.928Z,-2.32
2023-02-07T02:25:26.436Z,-2.32
2023-02-07T02:28:47.669Z,-2.38
2023-02-07T02:31:55.922Z,-2.37
2023-02-07T02:35:20.158Z,-2.35
2023-02-07T02:38:36.250Z,-2.62
2023-02-07T02:42:22.241Z,-2.57
2023-02-07T02:45:33.200Z,-2.58
2023-02-07T02:48:35.916Z,-2.60
2023-02-07T02:51:38.546Z,-2.62
2023-02-07T02:54:41.242Z,-2.53
2023-02-07T02:58:02.242Z,-2.59
2023-02-07T03:01:19.594Z,-2.35
2023-02-07T03:04:37.275Z,-2.38
2023-02-07T03:07:42.448Z,-2.27
2023-02-07T03:10:54.804Z,-2.54
2023-02-07T03:14:06.076Z,-2.51
2023-02-07T03:17:34.675Z,-2.67
2023-02-07T03:20:51.024Z,-2.63
2023-02-07T03:23:53.963Z,-2.52
2023-02-07T03:26:58.595Z,-2.77
2023-02-07T03:30:04.508Z,-2.84
2023-02-07T03:33:10.103Z,-2.73
2023-02-07T03:36:20.179Z,-2.60
2023-02-07T03:39:22.784Z,-2.74
2023-02-07T03:42:35.556Z,-2.49
2023-02-07T03:45:38.485Z,-2.42
2023-02-07T03:48:41.038Z,-2.57
2023-02-07T03:51:44.274Z,-2.51
2023-02-07T03:54:46.648Z,-2.43
2023-02-07T03:57:48.986Z,-2.54
2023-02-07T04:00:51.325Z,-2.56
2023-02-07T04:03:53.893Z,-2.74
2023-02-07T04:06:56.830Z,-2.73
2023-02-07T04:10:00.619Z,-2.62
2023-02-07T04:13:02.894Z,-2.73
2023-02-07T04:16:06.412Z,-2.70
2023-02-07T04:19:08.682Z,-2.80
2023-02-07T04:22:11.586Z,-2.62
2023-02-07T04:25:13.972Z,-2.58
2023-02-07T04:28:16.336Z,-2.77
2023-02-07T04:31:18.691Z,-2.72
2023-02-07T04:34:21.046Z,-2.65
2023-02-07T04:37:23.703Z,-2.75
2023-02-07T04:40:26.055Z,-2.82
2023-02-07T04:43:28.348Z,-2.80
2023-02-07T04:46:30.754Z,-2.85
2023-02-07T04:49:34.575Z,-3.00
2023-02-07T04:52:37.775Z,-3.22
2023-02-07T04:55:40.419Z,-3.12
2023-02-07T04:58:42.898Z,-3.18
2023-02-07T05:01:45.394Z,-3.28
2023-02-07T05:04:47.793Z,-3.16
2023-02-07T05:07:50.173Z,-2.95
2023-02-07T05:10:54.805Z,-2.80
2023-02-07T05:13:57.183Z,-2.56
2023-02-07T05:16:59.501Z,-2.67
2023-02-07T05:20:02.417Z,-2.57
2023-02-07T05:23:04.757Z,-2.45
2023-02-07T05:26:07.134Z,-2.43
2023-02-07T05:29:09.518Z,-2.45
2023-02-07T05:32:34.388Z,-2.35
2023-02-07T05:35:41.865Z,-2.26
2023-02-07T05:38:44.134Z,-2.39
2023-02-07T05:41:46.447Z,-2.34
2023-02-07T05:44:48.724Z,-2.25
2023-02-07T05:47:51.105Z,-2.34
2023-02-07T05:50:53.481Z,-2.09
2023-02-07T05:53:55.949Z,-2.06
2023-02-07T05:56:58.327Z,-2.15
2023-02-07T06:00:00.634Z,-1.97
2023-02-07T06:03:03.018Z,-2.16
2023-02-07T06:06:05.600Z,-2.32
2023-02-07T06:09:07.976Z,-2.10
2023-02-07T06:12:10.288Z,-1.89
2023-02-07T06:15:12.627Z,-1.87
2023-02-07T06:18:14.961Z,-1.71
2023-02-07T06:21:17.430Z,-1.77
2023-02-07T06:24:19.834Z,-1.27
2023-02-07T06:27:23.565Z,-1.09
2023-02-07T06:30:25.969Z,-1.28
2023-02-07T06:33:28.430Z,-0.98
2023-02-07T06:36:31.517Z,-1.01
2023-02-07T06:39:34.206Z,-1.22
2023-02-07T06:42:36.589Z,-1.34
2023-02-07T06:45:40.519Z,-1.36
2023-02-07T06:48:42.924Z,-1.35
2023-02-07T06:51:45.216Z,-1.30
2023-02-07T06:54:49.682Z,-1.31
2023-02-07T06:57:52.027Z,-1.31
2023-02-07T07:00:54.370Z,-1.14
2023-02-07T07:03:56.814Z,-0.86
2023-02-07T07:06:59.136Z,-0.65
2023-02-07T07:10:02.033Z,-0.37
2023-02-07T07:13:04.396Z,-0.04
2023-02-07T07:16:07.127Z,0.31
2023-02-07T07:19:09.469Z,0.69
2023-02-07T07:22:11.897Z,0.44
2023-02-07T07:25:14.319Z,0.39
2023-02-07T07:28:17.187Z,0.49
2023-02-07T07:31:21.136Z,0.80
2023-02-07T07:34:23.454Z,1.59
2023-02-07T07:37:26.851Z,1.89
2023-02-07T07:40:29.441Z,2.01
2023-02-07T07:43:33.108Z,2.05
2023-02-07T07:46:35.524Z,2.06
2023-02-07T07:49:39.239Z,2.53
2023-02-07T07:52:43.108Z,2.96
2023-02-07T07:55:50.570Z,3.03
2023-02-07T07:58:52.958Z,3.58
2023-02-07T08:01:55.308Z,3.65
2023-02-07T08:04:59.008Z,3.57
2023-02-07T08:08:01.261Z,3.51
2023-02-07T08:11:05.591Z,3.49
2023-02-07T08:14:07.859Z,3.52
2023-02-07T08:17:10.212Z,3.57
2023-02-07T08:20:12.743Z,3.97
2023-02-07T08:23:15.216Z,3.67
2023-02-07T08:26:17.842Z,2.80
2023-02-07T08:29:20.233Z,2.39
2023-02-07T08:32:22.576Z,2.97
2023-02-07T08:35:26.577Z,3.30
2023-02-07T08:38:28.933Z,3.11
2023-02-07T08:41:31.376Z,3.40
2023-02-07T08:44:35.287Z,3.01
2023-02-07T08:47:37.698Z,3.56
2023-02-07T08:50:40.605Z,4.06
2023-02-07T08:53:43.203Z,4.13
2023-02-07T08:56:45.612Z,4.10
2023-02-07T08:59:47.913Z,3.81
2023-02-07T09:02:50.266Z,4.19
2023-02-07T09:05:58.418Z,4.15
2023-02-07T09:09:01.909Z,4.22
2023-02-07T09:12:05.755Z,4.39
2023-02-07T09:15:08.553Z,4.37
2023-02-07T09:18:10.965Z,4.36
2023-02-07T09:21:13.394Z,4.39
2023-02-07T09:24:15.851Z,5.13
2023-02-07T09:27:18.162Z,4.99
2023-02-07T09:30:25.366Z,5.10
2023-02-07T09:33:29.826Z,5.67
2023-02-07T09:37:00.720Z,5.84
2023-02-07T09:40:19.741Z,6.65
2023-02-07T09:43:56.535Z,7.22
2023-02-07T09:47:35.583Z,7.27
2023-02-07T09:50:43.777Z,6.49
2023-02-07T09:54:07.340Z,6.31
2023-02-07T09:57:20.940Z,6.24
2023-02-07T10:04:38.973Z,5.98
2023-02-07T10:07:41.924Z,6.17
2023-02-07T10:10:49.259Z,6.20
2023-02-07T10:14:27.754Z,6.29
2023-02-07T10:17:50.998Z,6.41
2023-02-07T10:21:38.614Z,7.19
2023-02-07T10:25:06.788Z,7.30
2023-02-07T10:28:23.583Z,7.43
2023-02-07T10:31:26.513Z,7.36
2023-02-07T10:34:33.062Z,7.00
2023-02-07T10:37:39.177Z,7.06
2023-02-07T10:41:00.379Z,7.64
2023-02-07T10:44:06.616Z,7.77
2023-02-07T10:47:15.073Z,7.65
2023-02-07T10:50:42.731Z,7.36
2023-02-07T10:54:11.417Z,7.26
2023-02-07T10:58:02.631Z,7.87
2023-02-07T11:01:21.534Z,7.76
2023-02-07T11:04:38.222Z,8.62
2023-02-07T11:07:47.635Z,9.03
2023-02-07T11:10:54.020Z,9.72
2023-02-07T11:14:04.725Z,9.13
2023-02-07T11:17:07.131Z,9.38
2023-02-07T11:20:36.924Z,9.90
2023-02-07T11:23:45.065Z,9.71
2023-02-07T11:27:07.454Z,9.42
2023-02-07T11:35:09.600Z,7.26
2023-02-07T11:38:17.798Z,6.84
2023-02-07T11:41:26.292Z,7.23
2023-02-07T11:44:31.031Z,7.32
2023-02-07T11:47:38.387Z,7.23
2023-02-07T11:50:44.417Z,7.25
2023-02-07T11:53:57.682Z,6.72
2023-02-07T11:57:08.794Z,6.53
2023-02-07T12:00:30.664Z,6.80
2023-02-07T12:03:52.920Z,6.76
2023-02-07T12:07:15.158Z,6.65
2023-02-07T12:10:43.123Z,6.88
2023-02-07T12:13:54.003Z,7.32
2023-02-07T12:17:24.572Z,7.36
2023-02-07T12:20:29.615Z,7.39
2023-02-07T12:23:51.386Z,7.93
2023-02-07T12:27:11.122Z,8.10
2023-02-07T12:30:34.429Z,8.58
2023-02-07T12:33:44.053Z,7.75
2023-02-07T12:36:48.977Z,6.87
2023-02-07T12:40:09.786Z,6.69
2023-02-07T12:43:22.848Z,6.76
2023-02-07T12:46:49.969Z,6.53
2023-02-07T12:50:16.742Z,5.62
2023-02-07T12:54:39.648Z,6.21
2023-02-07T12:58:35.846Z,6.43
2023-02-07T13:01:57.447Z,6.46
2023-02-07T13:05:04.784Z,6.31
2023-02-07T13:08:34.173Z,5.71
2023-02-07T13:11:54.771Z,5.78
2023-02-07T13:15:16.920Z,5.79
2023-02-07T13:18:48.828Z,5.68
2023-02-07T13:22:03.026Z,5.78
2023-02-07T13:25:09.716Z,5.74
2023-02-07T13:28:30.578Z,5.45
2023-02-07T13:31:41.792Z,5.39
2023-02-07T13:34:53.108Z,5.29
2023-02-07T13:38:19.850Z,4.97
2023-02-07T13:41:34.108Z,5.23
2023-02-07T13:45:04.374Z,5.34
2023-02-07T13:48:17.372Z,5.36
2023-02-07T13:51:59.900Z,5.17
2023-02-07T13:55:28.344Z,4.92
2023-02-07T13:58:52.396Z,4.94
2023-02-07T14:02:05.904Z,4.65
2023-02-07T14:05:12.309Z,4.64
2023-02-07T14:08:17.773Z,4.70
2023-02-07T14:11:40.821Z,4.63
2023-02-07T14:16:04.306Z,4.56
2023-02-07T14:19:39.415Z,4.42
2023-02-07T14:22:44.159Z,4.49
2023-02-07T14:25:50.629Z,4.08
2023-02-07T14:28:52.987Z,4.14
2023-02-07T14:32:16.686Z,4.22
2023-02-07T14:35:19.633Z,4.20
2023-02-07T14:43:13.216Z,3.44
2023-02-07T14:46:58.252Z,4.02
2023-02-07T14:50:02.489Z,3.91
2023-02-07T14:53:42.106Z,4.01
2023-02-07T14:56:59.712Z,3.87
2023-02-07T15:00:44.124Z,3.48
2023-02-07T15:03:46.569Z,3.71
2023-02-07T15:06:49.354Z,3.94
2023-02-07T15:09:51.720Z,4.00
2023-02-07T15:12:55.254Z,4.05
2023-02-07T15:16:27.463Z,4.02
2023-02-07T15:19:45.371Z,3.38
2023-02-07T15:22:53.346Z,3.45
2023-02-07T15:25:56.383Z,3.27
2023-02-07T15:29:06.451Z,3.24
2023-02-07T15:32:23.653Z,3.35
2023-02-07T15:35:30.130Z,3.16
2023-02-07T15:38:34.421Z,3.02
2023-02-07T15:41:37.787Z,3.07
2023-02-07T15:44:51.288Z,3.15
2023-02-07T15:48:02.066Z,2.97
2023-02-07T15:51:05.554Z,2.81
2023-02-07T15:54:19.170Z,2.85
2023-02-07T15:57:35.940Z,2.80
2023-02-07T16:00:45.618Z,2.80
2023-02-07T16:03:54.711Z,2.68
2023-02-07T16:07:11.211Z,2.72
2023-02-07T16:10:33.136Z,2.75
2023-02-07T16:13:49.113Z,2.60
2023-02-07T16:17:23.403Z,2.66
2023-02-07T16:20:23.574Z,2.46
2023-02-07T16:23:29.465Z,2.38
2023-02-07T16:26:31.841Z,2.51
2023-02-07T16:29:36.031Z,2.52
2023-02-07T16:32:38.519Z,2.52
2023-02-07T16:35:40.859Z,2.46
2023-02-07T16:38:43.541Z,2.24
2023-02-07T16:41:57.181Z,2.08
2023-02-07T16:45:00.591Z,2.18
2023-02-07T16:48:03.079Z,2.08
2023-02-07T16:51:05.562Z,2.29
2023-02-07T16:54:08.017Z,2.13
2023-02-07T16:57:12.874Z,2.27
2023-02-07T17:00:19.528Z,2.05
2023-02-07T17:03:22.945Z,1.73
2023-02-07T17:06:25.405Z,1.69
2023-02-07T17:09:27.809Z,1.97
2023-02-07T17:12:30.126Z,1.92
2023-02-07T17:15:32.765Z,2.00
2023-02-07T17:18:35.070Z,2.28
2023-02-07T17:21:37.359Z,2.14
2023-02-07T17:24:39.676Z,2.12
2023-02-07T17:27:42.117Z,1.97
2023-02-07T17:30:45.250Z,1.94
2023-02-07T17:33:48.116Z,1.94
2023-02-07T17:36:50.770Z,1.93
2023-02-07T17:39:53.239Z,1.87
2023-02-07T17:42:56.245Z,1.82
2023-02-07T17:45:58.572Z,1.87
2023-02-07T17:49:01.359Z,1.92
2023-02-07T17:52:03.903Z,1.61
2023-02-07T17:55:06.585Z,1.80
2023-02-07T17:58:10.577Z,1.62
2023-02-07T18:01:12.998Z,1.66
2023-02-07T18:04:15.346Z,1.66
2023-02-07T18:07:17.824Z,1.50
2023-02-07T18:10:21.737Z,1.64
2023-02-07T18:13:24.040Z,1.64
2023-02-07T18:16:27.187Z,1.34
2023-02-07T18:19:32.579Z,1.45
2023-02-07T18:22:35.092Z,1.58
2023-02-07T18:25:37.431Z,1.56
2023-02-07T18:28:40.142Z,1.38
2023-02-07T18:31:42.643Z,1.21
2023-02-07T18:34:45.261Z,1.36
2023-02-07T18:37:47.984Z,1.36
2023-02-07T18:40:50.555Z,1.20
2023-02-07T18:43:52.993Z,1.13
2023-02-07T18:46:55.318Z,1.03
2023-02-07T18:49:57.563Z,0.80
2023-02-07T18:52:59.884Z,0.78
2023-02-07T18:56:23.124Z,0.68
2023-02-07T18:59:25.663Z,0.67
2023-02-07T19:02:28.030Z,0.63
2023-02-07T19:05:30.444Z,0.71
2023-02-07T19:08:32.846Z,0.53
2023-02-07T19:11:36.690Z,0.36
2023-02-07T19:14:39.017Z,0.43
2023-02-07T19:17:41.319Z,0.53
2023-02-07T19:20:43.814Z,0.66
2023-02-07T19:23:48.447Z,0.77
2023-02-07T19:26:57.761Z,0.76
2023-02-07T19:30:00.280Z,0.73
2023-02-07T19:33:03.067Z,0.70
2023-02-07T19:36:10.212Z,0.70
2023-02-07T19:39:12.509Z,0.72
2023-02-07T19:42:15.038Z,0.53
2023-02-07T19:45:17.465Z,0.66
2023-02-07T19:48:20.956Z,0.73
2023-02-07T19:51:28.505Z,0.59
2023-02-07T19:54:30.832Z,0.72
2023-02-07T19:57:36.254Z,0.67
2023-02-07T20:00:39.069Z,0.62
2023-02-07T20:03:44.469Z,0.57
2023-02-07T20:06:46.785Z,0.61
2023-02-07T20:09:49.253Z,0.53
2023-02-07T20:12:54.696Z,0.53
2023-02-07T20:15:58.047Z,0.61
2023-02-07T20:19:00.879Z,0.53
2023-02-07T20:22:03.254Z,0.36
2023-02-07T20:25:07.621Z,0.21
2023-02-07T20:28:10.028Z,0.41
2023-02-07T20:31:15.569Z,0.55
2023-02-07T20:34:20.879Z,0.22
2023-02-07T20:37:23.187Z,0.43
2023-02-07T20:40:25.512Z,0.37
2023-02-07T20:43:27.863Z,0.34
2023-02-07T20:46:31.003Z,0.27
2023-02-07T20:49:33.452Z,0.35
2023-02-07T20:52:37.585Z,0.38
2023-02-07T20:55:39.912Z,0.33
2023-02-07T20:58:42.219Z,0.45
2023-02-07T21:01:44.574Z,0.37
2023-02-07T21:04:46.824Z,0.27
2023-02-07T21:07:49.096Z,0.14
2023-02-07T21:10:51.558Z,0.15
2023-02-07T21:13:54.359Z,0.27
2023-02-07T21:16:58.724Z,0.14
2023-02-07T21:20:01.192Z,0.32
2023-02-07T21:23:03.532Z,0.26
2023-02-07T21:26:07.679Z,0.19
2023-02-07T21:29:11.130Z,0.15
2023-02-07T21:32:13.482Z,0.22
2023-02-07T21:35:16.106Z,0.18
2023-02-07T21:38:18.417Z,0.18
2023-02-07T21:41:23.335Z,0.02
2023-02-07T21:44:25.898Z,0.12
2023-02-07T21:47:28.745Z,0.30
2023-02-07T21:50:33.051Z,0.05
2023-02-07T21:53:36.995Z,0.06
2023-02-07T21:56:40.806Z,0.28
2023-02-07T21:59:43.172Z,0.26
2023-02-07T22:02:46.237Z,0.21
2023-02-07T22:05:52.007Z,0.25
2023-02-07T22:08:59.992Z,0.11
2023-02-07T22:12:02.726Z,0.06
2023-02-07T22:15:05.314Z,0.11
2023-02-07T22:18:07.621Z,0.12
2023-02-07T22:21:14.908Z,-0.02
2023-02-07T22:24:18.771Z,-0.10
2023-02-07T22:27:21.082Z,0.18
2023-02-07T22:30:24.964Z,-0.05
2023-02-07T22:33:28.598Z,0.04
2023-02-07T22:36:33.733Z,-0.06
2023-02-07T22:39:36.051Z,0.21
2023-02-07T22:42:39.563Z,-0.06
2023-02-07T22:45:45.965Z,0.09
2023-02-07T22:48:49.198Z,-0.16
2023-02-07T22:51:51.724Z,-0.15
2023-02-07T22:54:54.153Z,-0.21
2023-02-07T22:57:57.651Z,-0.33
2023-02-07T23:01:00.002Z,-0.22
2023-02-07T23:04:05.136Z,-0.26
2023-02-07T23:07:07.688Z,-0.29
2023-02-07T23:10:10.245Z,-0.28
2023-02-07T23:13:12.682Z,-0.15
2023-02-07T23:16:20.691Z,-0.05
2023-02-07T23:19:23.625Z,-0.10
2023-02-07T23:22:27.189Z,-0.04
2023-02-07T23:25:29.623Z,-0.07
2023-02-07T23:28:31.956Z,-0.08
2023-02-07T23:31:35.263Z,-0.31
2023-02-07T23:34:37.646Z,-0.15
2023-02-07T23:37:39.984Z,-0.15
2023-02-07T23:40:42.672Z,-0.25
2023-02-07T23:43:46.669Z,-0.07
2023-02-07T23:46:48.984Z,0.00
2023-02-07T23:49:51.442Z,0.07
2023-02-07T23:52:53.738Z,-0.02
2023-02-07T23:55:56.609Z,0.27
2023-02-07T23:58:59.061Z,0.12
